Time;durP1;ratioP1;P1;durP2;ratioP2;P2;SDS_P1;SDS_P2;PMS_P1;PMS_P2;Temp;Humidity;BMP_temperature;BMP_pressure;BME280_temperature;BME280_humidity;BME280_pressure;Samples;Min_cycle;Max_cycle;Signal;HPM_P1;HPM_P2
2023/12/16 00:00:07;;;;;;;7.82;3.13;;;;;;;;;;6118005;23;20013;-72
2023/12/16 00:02:37;;;;;;;6.20;2.83;;;;;;;;;;6118195;23;20033;-72
2023/12/16 00:05:03;;;;;;;5.63;3.08;;;;;;;;;;6118142;23;20010;-72
2023/12/16 00:07:29;;;;;;;7.30;3.70;;;;;;;;;;6117638;23;20029;-72
2023/12/16 00:09:54;;;;;;;8.45;4.63;;;;;;;;;;6118264;23;20021;-71
2023/12/16 00:12:20;;;;;;;5.72;3.17;;;;;;;;;;6117767;23;20005;-72
2023/12/16 00:14:47;;;;;;;4.97;2.70;;;;;;;;;;6117497;23;20341;-72
2023/12/16 00:17:13;;;;;;;3.72;1.83;;;;;;;;;;6115268;23;20013;-72
2023/12/16 00:19:39;;;;;;;6.63;2.53;;;;;;;;;;6118080;23;20017;-72
2023/12/16 00:22:04;;;;;;;5.55;3.22;;;;;;;;;;6117864;23;20002;-71
2023/12/16 00:24:30;;;;;;;4.22;2.20;;;;;;;;;;6117092;23;20014;-72
2023/12/16 00:26:56;;;;;;;4.43;2.60;;;;;;;;;;6117097;23;20540;-72
2023/12/16 00:29:21;;;;;;;3.13;2.00;;;;;;;;;;6117193;23;20045;-72
2023/12/16 00:31:47;;;;;;;4.32;2.40;;;;;;;;;;6116253;23;20229;-72
2023/12/16 00:34:14;;;;;;;3.42;2.17;;;;;;;;;;6116920;23;20085;-72
2023/12/16 00:36:41;;;;;;;2.97;2.08;;;;;;;;;;6116802;23;20006;-73
2023/12/16 00:39:09;;;;;;;6.45;3.05;;;;;;;;;;6116507;23;20350;-71
2023/12/16 00:41:35;;;;;;;4.70;2.10;;;;;;;;;;6089299;23;20018;-72
2023/12/16 00:44:00;;;;;;;4.47;1.88;;;;;;;;;;6091595;23;20021;-73
2023/12/16 00:46:26;;;;;;;2.75;1.73;;;;;;;;;;6117318;23;20002;-72
2023/12/16 00:48:52;;;;;;;3.15;1.65;;;;;;;;;;6117459;23;20013;-72
2023/12/16 00:51:20;;;;;;;2.47;1.35;;;;;;;;;;6117721;23;20425;-72
2023/12/16 00:53:46;;;;;;;3.88;2.00;;;;;;;;;;6117310;23;20090;-72
2023/12/16 00:56:12;;;;;;;3.05;1.48;;;;;;;;;;6118041;23;20014;-73
2023/12/16 00:58:38;;;;;;;2.10;1.38;;;;;;;;;;6123394;23;20010;-73
2023/12/16 01:01:03;;;;;;;2.75;1.52;;;;;;;;;;6123168;23;20006;-72
2023/12/16 01:03:29;;;;;;;1.88;1.13;;;;;;;;;;6098681;23;20072;-71
2023/12/16 01:05:55;;;;;;;3.72;1.90;;;;;;;;;;6124475;23;20310;-72
2023/12/16 01:08:20;;;;;;;2.72;1.60;;;;;;;;;;6124918;23;20017;-72
2023/12/16 01:10:46;;;;;;;2.97;1.50;;;;;;;;;;6125086;23;20010;-72
2023/12/16 01:13:12;;;;;;;2.78;1.40;;;;;;;;;;6124262;23;20481;-72
2023/12/16 01:15:37;;;;;;;9.02;4.10;;;;;;;;;;6125002;23;20322;-72
2023/12/16 01:18:03;;;;;;;3.85;1.83;;;;;;;;;;6125059;23;20029;-72
2023/12/16 01:20:29;;;;;;;2.63;1.50;;;;;;;;;;6098696;23;20340;-73
2023/12/16 01:22:55;;;;;;;2.70;1.60;;;;;;;;;;6124704;23;20025;-71
2023/12/16 01:25:21;;;;;;;3.17;1.42;;;;;;;;;;6124542;23;20021;-72
2023/12/16 01:27:48;;;;;;;3.60;1.90;;;;;;;;;;6124846;23;20069;-72
2023/12/16 01:30:13;;;;;;;3.72;1.92;;;;;;;;;;6124467;23;20005;-72
2023/12/16 01:32:39;;;;;;;3.60;1.73;;;;;;;;;;6124551;23;20010;-72
2023/12/16 01:35:05;;;;;;;4.10;1.70;;;;;;;;;;6098538;23;20006;-72
2023/12/16 01:37:31;;;;;;;3.47;1.63;;;;;;;;;;6124530;23;20009;-72
2023/12/16 01:39:57;;;;;;;1.90;1.27;;;;;;;;;;6124616;23;20104;-71
2023/12/16 01:42:22;;;;;;;2.28;1.30;;;;;;;;;;6124436;23;20029;-72
2023/12/16 01:44:48;;;;;;;2.08;1.10;;;;;;;;;;6124158;23;20073;-72
2023/12/16 01:47:15;;;;;;;2.15;1.23;;;;;;;;;;6122062;23;20021;-72
2023/12/16 01:49:41;;;;;;;2.50;1.20;;;;;;;;;;6124625;23;20341;-72
2023/12/16 01:52:07;;;;;;;3.00;1.15;;;;;;;;;;6124214;23;20005;-72
2023/12/16 01:54:33;;;;;;;2.92;1.17;;;;;;;;;;6123443;23;20010;-71
2023/12/16 01:57:00;;;;;;;1.98;1.23;;;;;;;;;;6124470;23;20013;-72
2023/12/16 01:59:27;;;;;;;2.20;1.30;;;;;;;;;;6097217;23;20017;-73
2023/12/16 02:01:53;;;;;;;1.60;1.10;;;;;;;;;;6121607;23;20017;-73
2023/12/16 02:04:19;;;;;;;2.50;1.23;;;;;;;;;;6122151;23;20005;-72
2023/12/16 02:06:45;;;;;;;1.60;1.20;;;;;;;;;;6122458;23;20101;-72
2023/12/16 02:09:13;;;;;;;2.40;1.27;;;;;;;;;;6122356;23;20025;-73
2023/12/16 02:11:39;;;;;;;3.40;1.63;;;;;;;;;;6123438;23;20456;-72
2023/12/16 02:14:06;;;;;;;3.50;1.77;;;;;;;;;;6122882;23;20002;-71
2023/12/16 02:16:32;;;;;;;2.75;1.60;;;;;;;;;;6126957;23;20006;-72
2023/12/16 02:18:57;;;;;;;3.08;1.90;;;;;;;;;;6125144;23;20452;-71
2023/12/16 02:21:23;;;;;;;3.00;1.70;;;;;;;;;;6125589;23;20330;-72
2023/12/16 02:23:49;;;;;;;3.85;1.77;;;;;;;;;;6126352;23;20009;-71
2023/12/16 02:26:15;;;;;;;3.50;2.00;;;;;;;;;;6125995;23;20142;-72
2023/12/16 02:28:40;;;;;;;3.00;1.73;;;;;;;;;;6123782;23;20006;-73
2023/12/16 02:31:06;;;;;;;7.15;3.55;;;;;;;;;;6124681;23;20013;-73
2023/12/16 02:33:32;;;;;;;2.13;1.60;;;;;;;;;;6097330;23;19998;-73
2023/12/16 02:35:59;;;;;;;2.85;1.50;;;;;;;;;;6125614;23;20057;-72
2023/12/16 02:38:25;;;;;;;2.30;1.27;;;;;;;;;;6125417;23;20372;-72
2023/12/16 02:40:51;;;;;;;2.58;1.40;;;;;;;;;;6099909;23;20041;-73
2023/12/16 02:43:16;;;;;;;2.47;1.58;;;;;;;;;;6125762;23;20444;-73
2023/12/16 02:45:42;;;;;;;3.10;1.73;;;;;;;;;;6126235;23;20081;-72
2023/12/16 02:48:08;;;;;;;2.55;1.77;;;;;;;;;;6126228;23;20469;-72
2023/12/16 02:50:33;;;;;;;3.78;2.20;;;;;;;;;;6126182;23;20010;-72
2023/12/16 02:52:59;;;;;;;4.53;2.05;;;;;;;;;;6123777;23;20162;-72
2023/12/16 02:55:25;;;;;;;3.67;2.20;;;;;;;;;;6126026;23;20010;-72
2023/12/16 02:57:51;;;;;;;4.65;2.38;;;;;;;;;;6122444;23;20306;-73
2023/12/16 03:00:17;;;;;;;4.85;2.28;;;;;;;;;;6126005;23;20017;-72
2023/12/16 03:02:43;;;;;;;4.35;2.35;;;;;;;;;;6125936;23;20005;-72
2023/12/16 03:05:08;;;;;;;3.35;2.40;;;;;;;;;;6125971;23;20021;-72
2023/12/16 03:07:34;;;;;;;3.25;2.38;;;;;;;;;;6125865;23;20006;-72
2023/12/16 03:10:00;;;;;;;4.97;2.25;;;;;;;;;;6126669;23;20476;-72
2023/12/16 03:12:26;;;;;;;5.00;2.33;;;;;;;;;;6126677;23;20420;-72
2023/12/16 03:14:51;;;;;;;6.78;2.75;;;;;;;;;;6125981;23;20053;-72
2023/12/16 03:17:17;;;;;;;6.20;3.00;;;;;;;;;;6125774;23;19998;-72
2023/12/16 03:19:43;;;;;;;5.50;3.13;;;;;;;;;;6125690;23;20152;-72
2023/12/16 03:22:10;;;;;;;4.07;2.55;;;;;;;;;;6125630;23;20332;-72
2023/12/16 03:24:37;;;;;;;4.22;2.78;;;;;;;;;;6125450;23;20014;-72
2023/12/16 03:27:02;;;;;;;4.40;3.10;;;;;;;;;;6125801;23;20093;-72
2023/12/16 03:29:28;;;;;;;3.42;2.20;;;;;;;;;;6125366;23;20014;-72
2023/12/16 03:31:56;;;;;;;3.70;1.85;;;;;;;;;;6125285;23;20010;-73
2023/12/16 03:34:22;;;;;;;2.45;1.58;;;;;;;;;;6125489;23;20345;-72
2023/12/16 03:36:48;;;;;;;3.55;2.00;;;;;;;;;;6125584;23;20006;-72
2023/12/16 03:39:14;;;;;;;3.03;1.70;;;;;;;;;;6125568;23;20017;-72
2023/12/16 03:41:39;;;;;;;3.72;2.33;;;;;;;;;;6125492;23;20073;-72
2023/12/16 03:44:05;;;;;;;4.25;2.25;;;;;;;;;;6125159;23;20089;-72
2023/12/16 03:46:31;;;;;;;5.07;2.65;;;;;;;;;;6125283;23;20008;-72
2023/12/16 03:48:56;;;;;;;2.97;1.67;;;;;;;;;;6125208;23;20014;-72
2023/12/16 03:51:23;;;;;;;8.50;4.70;;;;;;;;;;6125222;23;20389;-73
2023/12/16 03:53:49;;;;;;;5.90;2.95;;;;;;;;;;6125249;23;20437;-72
2023/12/16 03:56:15;;;;;;;6.50;3.78;;;;;;;;;;6125598;23;20121;-72
2023/12/16 03:58:41;;;;;;;3.65;2.17;;;;;;;;;;6125193;23;20010;-72
2023/12/16 04:01:13;;;;;;;3.78;1.60;;;;;;;;;;6099741;23;20002;-72
2023/12/16 04:03:42;;;;;;;2.63;1.73;;;;;;;;;;6124802;23;20073;-71
2023/12/16 04:06:14;;;;;;;3.17;1.90;;;;;;;;;;6125544;23;20010;-72
2023/12/16 04:08:41;;;;;;;3.17;2.10;;;;;;;;;;6099537;23;20318;-72
2023/12/16 04:11:07;;;;;;;2.95;2.00;;;;;;;;;;6125219;23;20001;-72
2023/12/16 04:13:36;;;;;;;2.70;1.85;;;;;;;;;;6123506;23;20508;-73
2023/12/16 04:16:03;;;;;;;3.05;2.03;;;;;;;;;;6125191;23;20425;-72
2023/12/16 04:18:30;;;;;;;5.30;2.45;;;;;;;;;;6124910;23;20326;-71
2023/12/16 04:20:56;;;;;;;4.85;2.10;;;;;;;;;;6124844;23;20445;-72
2023/12/16 04:23:21;;;;;;;3.45;1.83;;;;;;;;;;6125230;23;20018;-71
2023/12/16 04:25:47;;;;;;;4.60;2.22;;;;;;;;;;6124243;23;20010;-73
2023/12/16 04:28:13;;;;;;;3.00;1.70;;;;;;;;;;6124937;23;20013;-72
2023/12/16 04:30:38;;;;;;;1.90;1.30;;;;;;;;;;6124490;23;20461;-72
2023/12/16 04:33:04;;;;;;;2.35;1.35;;;;;;;;;;6125068;23;20061;-72
2023/12/16 04:35:30;;;;;;;3.65;1.70;;;;;;;;;;6125114;23;20093;-72
2023/12/16 04:37:55;;;;;;;2.72;1.70;;;;;;;;;;6124790;23;20081;-72
2023/12/16 04:40:21;;;;;;;3.92;1.95;;;;;;;;;;6125356;23;19997;-72
2023/12/16 04:42:47;;;;;;;3.33;1.88;;;;;;;;;;6124754;23;20033;-72
2023/12/16 04:45:12;;;;;;;4.13;1.77;;;;;;;;;;6124208;23;20421;-72
2023/12/16 04:47:38;;;;;;;3.33;1.92;;;;;;;;;;6124771;23;20014;-72
2023/12/16 04:50:05;;;;;;;2.83;1.63;;;;;;;;;;6124817;23;20081;-72
2023/12/16 04:52:30;;;;;;;7.03;4.20;;;;;;;;;;6124549;23;20013;-72
2023/12/16 04:54:56;;;;;;;0.88;0.70;;;;;;;;;;6124522;23;20025;-72
2023/12/16 04:57:23;;;;;;;2.38;1.33;;;;;;;;;;6098728;23;20065;-72
2023/12/16 04:59:49;;;;;;;6.57;3.70;;;;;;;;;;6124637;23;20129;-72
2023/12/16 05:02:14;;;;;;;3.78;2.88;;;;;;;;;;6124766;23;20134;-72
2023/12/16 05:04:40;;;;;;;5.80;2.88;;;;;;;;;;6124163;23;19998;-73
2023/12/16 05:07:06;;;;;;;3.13;2.05;;;;;;;;;;6124522;23;20069;-73
2023/12/16 05:09:31;;;;;;;3.40;2.20;;;;;;;;;;6124620;23;20077;-73
2023/12/16 05:11:57;;;;;;;2.33;1.00;;;;;;;;;;6124515;23;20032;-72
2023/12/16 05:14:23;;;;;;;5.20;2.30;;;;;;;;;;6124147;23;20002;-73
2023/12/16 05:16:48;;;;;;;1.63;1.17;;;;;;;;;;6124380;23;20010;-71
2023/12/16 05:19:14;;;;;;;1.95;1.30;;;;;;;;;;6124251;23;19998;-71
2023/12/16 05:21:40;;;;;;;2.83;1.63;;;;;;;;;;6127296;23;20037;-72
2023/12/16 05:24:06;;;;;;;3.05;1.70;;;;;;;;;;6125925;23;20009;-72
2023/12/16 05:26:32;;;;;;;3.60;2.30;;;;;;;;;;6124297;23;20014;-72
2023/12/16 05:28:59;;;;;;;3.72;2.20;;;;;;;;;;6124288;23;20056;-71
2023/12/16 05:31:24;;;;;;;3.30;2.08;;;;;;;;;;6124700;23;20344;-72
2023/12/16 05:33:50;;;;;;;4.97;3.17;;;;;;;;;;6124131;23;20002;-72
2023/12/16 05:36:16;;;;;;;3.45;1.85;;;;;;;;;;6124457;23;20020;-72
2023/12/16 05:38:41;;;;;;;2.72;1.70;;;;;;;;;;6124669;23;20006;-72
2023/12/16 05:41:07;;;;;;;2.92;1.90;;;;;;;;;;6124353;23;20010;-72
2023/12/16 05:43:33;;;;;;;3.15;1.95;;;;;;;;;;6124422;23;20442;-72
2023/12/16 05:45:59;;;;;;;3.08;2.10;;;;;;;;;;6124588;23;20334;-71
2023/12/16 05:48:26;;;;;;;4.43;2.03;;;;;;;;;;6124349;23;20012;-73
2023/12/16 05:50:51;;;;;;;3.17;2.15;;;;;;;;;;6123967;23;20021;-71
2023/12/16 05:53:17;;;;;;;5.38;2.20;;;;;;;;;;6123955;23;19998;-72
2023/12/16 05:55:47;;;;;;;3.70;2.30;;;;;;;;;;6125300;23;20016;-72
2023/12/16 05:58:12;;;;;;;3.70;2.42;;;;;;;;;;6126249;23;20033;-72
2023/12/16 06:00:40;;;;;;;4.85;2.88;;;;;;;;;;6127162;23;20006;-71
2023/12/16 06:03:05;;;;;;;3.10;1.90;;;;;;;;;;6125919;23;20017;-73
2023/12/16 06:05:31;;;;;;;5.18;1.80;;;;;;;;;;6125951;23;20267;-71
2023/12/16 06:07:57;;;;;;;2.80;1.73;;;;;;;;;;6126277;23;20017;-71
2023/12/16 06:10:22;;;;;;;3.50;2.05;;;;;;;;;;6125918;23;20294;-72
2023/12/16 06:12:48;;;;;;;3.70;2.35;;;;;;;;;;6126075;23;20014;-73
2023/12/16 06:15:14;;;;;;;3.78;1.90;;;;;;;;;;6100784;23;20008;-75
2023/12/16 06:17:39;;;;;;;3.63;2.10;;;;;;;;;;6125863;23;20020;-76
2023/12/16 06:20:06;;;;;;;3.35;1.90;;;;;;;;;;6125959;23;20128;-73
2023/12/16 06:22:32;;;;;;;3.88;2.00;;;;;;;;;;6125567;23;20014;-75
2023/12/16 06:24:58;;;;;;;5.82;2.55;;;;;;;;;;6123781;23;20006;-75
2023/12/16 06:27:24;;;;;;;4.25;2.50;;;;;;;;;;6125612;23;20010;-76
2023/12/16 06:29:50;;;;;;;4.95;2.63;;;;;;;;;;6126077;23;20005;-76
2023/12/16 06:32:15;;;;;;;4.18;2.90;;;;;;;;;;6126273;23;20018;-75
2023/12/16 06:34:41;;;;;;;4.60;2.60;;;;;;;;;;6125916;23;20009;-74
2023/12/16 06:37:08;;;;;;;5.35;3.22;;;;;;;;;;6125752;23;20444;-76
2023/12/16 06:39:34;;;;;;;5.53;3.03;;;;;;;;;;6126045;23;20277;-76
2023/12/16 06:42:01;;;;;;;4.57;3.10;;;;;;;;;;6126186;23;20085;-75
2023/12/16 06:44:27;;;;;;;5.40;2.97;;;;;;;;;;6125502;23;20089;-74
2023/12/16 06:46:53;;;;;;;4.97;3.05;;;;;;;;;;6126093;23;20128;-75
2023/12/16 06:49:19;;;;;;;4.97;2.42;;;;;;;;;;6126269;23;20025;-75
2023/12/16 06:51:45;;;;;;;5.00;2.60;;;;;;;;;;6099919;23;20010;-75
2023/12/16 06:54:10;;;;;;;5.85;3.30;;;;;;;;;;6125573;23;20340;-75
2023/12/16 06:56:37;;;;;;;6.43;3.63;;;;;;;;;;6125720;23;20144;-76
2023/12/16 06:59:03;;;;;;;4.93;2.65;;;;;;;;;;6125670;23;20129;-75
2023/12/16 07:01:29;;;;;;;4.35;2.35;;;;;;;;;;6125467;23;20021;-74
2023/12/16 07:03:56;;;;;;;2.65;1.70;;;;;;;;;;6125909;23;20029;-74
2023/12/16 07:06:22;;;;;;;3.58;1.90;;;;;;;;;;6125228;23;20385;-75
2023/12/16 07:08:48;;;;;;;4.18;2.30;;;;;;;;;;6125387;23;20080;-75
2023/12/16 07:11:14;;;;;;;5.78;3.70;;;;;;;;;;6125324;23;20010;-74
2023/12/16 07:13:40;;;;;;;9.35;5.32;;;;;;;;;;6124207;23;20337;-73
2023/12/16 07:16:06;;;;;;;4.78;3.08;;;;;;;;;;6099742;23;20044;-74
2023/12/16 07:18:32;;;;;;;6.25;3.15;;;;;;;;;;6125515;23;20002;-75
2023/12/16 07:20:58;;;;;;;4.40;3.00;;;;;;;;;;6125614;23;20016;-75
2023/12/16 07:23:24;;;;;;;6.68;3.30;;;;;;;;;;6125076;23;20373;-75
2023/12/16 07:25:50;;;;;;;6.82;4.55;;;;;;;;;;6124968;23;20029;-76
2023/12/16 07:28:16;;;;;;;9.40;5.40;;;;;;;;;;6123851;23;20040;-75
2023/12/16 07:30:43;;;;;;;8.55;4.35;;;;;;;;;;6099173;23;20014;-76
2023/12/16 07:33:08;;;;;;;8.13;3.20;;;;;;;;;;6125335;23;20077;-75
2023/12/16 07:35:35;;;;;;;7.78;4.75;;;;;;;;;;6125288;23;20378;-75
2023/12/16 07:38:00;;;;;;;4.40;2.45;;;;;;;;;;6099106;23;20013;-74
2023/12/16 07:40:26;;;;;;;3.90;2.20;;;;;;;;;;6099701;23;20128;-75
2023/12/16 07:42:52;;;;;;;4.32;2.30;;;;;;;;;;6123676;23;20461;-75
2023/12/16 07:45:17;;;;;;;5.53;1.60;;;;;;;;;;6122643;23;20021;-75
2023/12/16 07:47:43;;;;;;;3.33;0.70;;;;;;;;;;6124821;23;20013;-74
2023/12/16 07:50:10;;;;;;;1.48;0.80;;;;;;;;;;6124381;23;20010;-73
2023/12/16 07:52:36;;;;;;;1.23;0.70;;;;;;;;;;6098955;23;20072;-74
2023/12/16 07:55:02;;;;;;;1.60;1.00;;;;;;;;;;6124369;23;20092;-73
2023/12/16 07:57:28;;;;;;;2.92;1.65;;;;;;;;;;6124717;23;20029;-74
2023/12/16 07:59:54;;;;;;;4.68;1.23;;;;;;;;;;6124883;23;20020;-73
2023/12/16 08:02:19;;;;;;;2.33;1.35;;;;;;;;;;6125071;23;20034;-72
2023/12/16 08:04:45;;;;;;;2.72;1.52;;;;;;;;;;6124520;23;20041;-72
2023/12/16 08:07:10;;;;;;;4.10;2.10;;;;;;;;;;6124815;23;20006;-74
2023/12/16 08:09:36;;;;;;;5.50;2.72;;;;;;;;;;6124612;23;20432;-73
2023/12/16 08:12:02;;;;;;;4.13;2.08;;;;;;;;;;6122880;23;20014;-75
2023/12/16 08:14:28;;;;;;;4.15;2.28;;;;;;;;;;6098599;23;20014;-73
2023/12/16 08:16:54;;;;;;;4.93;2.40;;;;;;;;;;6125269;23;20010;-74
2023/12/16 08:19:20;;;;;;;4.10;2.22;;;;;;;;;;6124331;23;20040;-73
2023/12/16 08:21:45;;;;;;;2.60;1.60;;;;;;;;;;6124662;23;20013;-73
2023/12/16 08:24:11;;;;;;;3.75;1.58;;;;;;;;;;6098126;23;20109;-74
2023/12/16 08:26:36;;;;;;;4.93;2.75;;;;;;;;;;6124393;23;20500;-75
2023/12/16 08:29:03;;;;;;;4.28;2.25;;;;;;;;;;6130418;23;20034;-74
2023/12/16 08:31:28;;;;;;;3.42;2.17;;;;;;;;;;6139982;23;19998;-74
2023/12/16 08:33:54;;;;;;;5.68;3.13;;;;;;;;;;6126683;23;20025;-74
2023/12/16 08:36:22;;;;;;;5.93;2.90;;;;;;;;;;6124255;23;20045;-73
2023/12/16 08:38:48;;;;;;;5.95;3.22;;;;;;;;;;6097743;23;20014;-74
2023/12/16 08:41:14;;;;;;;8.07;4.07;;;;;;;;;;6124081;23;20009;-73
2023/12/16 08:43:42;;;;;;;10.85;5.72;;;;;;;;;;6098158;23;20452;-74
2023/12/16 08:46:07;;;;;;;2.83;1.90;;;;;;;;;;6124378;23;20073;-73
2023/12/16 08:48:34;;;;;;;6.03;2.67;;;;;;;;;;6124332;23;20444;-75
2023/12/16 08:51:00;;;;;;;5.97;3.00;;;;;;;;;;6124133;23;20008;-73
2023/12/16 08:53:26;;;;;;;4.63;2.75;;;;;;;;;;6124041;23;20014;-74
2023/12/16 08:55:52;;;;;;;6.88;3.75;;;;;;;;;;6124354;23;20078;-74
2023/12/16 08:58:18;;;;;;;19.35;8.95;;;;;;;;;;6124358;23;20355;-72
2023/12/16 09:00:44;;;;;;;7.95;4.00;;;;;;;;;;6124044;23;20005;-73
2023/12/16 09:03:09;;;;;;;7.65;4.22;;;;;;;;;;6123907;23;20068;-73
2023/12/16 09:05:36;;;;;;;23.65;9.43;;;;;;;;;;6097979;23;20131;-74
2023/12/16 09:08:03;;;;;;;9.68;4.20;;;;;;;;;;6122420;23;20014;-74
2023/12/16 09:10:29;;;;;;;6.72;3.75;;;;;;;;;;6124020;23;20009;-74
2023/12/16 09:12:55;;;;;;;7.72;4.20;;;;;;;;;;6124251;23;20010;-74
2023/12/16 09:15:20;;;;;;;14.02;5.28;;;;;;;;;;6124461;23;20551;-74
2023/12/16 09:17:49;;;;;;;11.98;3.50;;;;;;;;;;6124314;23;20489;-74
2023/12/16 09:20:15;;;;;;;3.88;2.00;;;;;;;;;;6123639;23;20105;-73
2023/12/16 09:22:40;;;;;;;3.70;1.98;;;;;;;;;;6122834;23;20437;-73
2023/12/16 09:25:08;;;;;;;2.65;0.95;;;;;;;;;;6124065;23;20448;-73
2023/12/16 09:27:35;;;;;;;3.60;1.27;;;;;;;;;;6123734;23;20452;-74
2023/12/16 09:30:01;;;;;;;20.23;3.20;;;;;;;;;;6125606;23;20038;-73
2023/12/16 09:32:26;;;;;;;25.00;3.50;;;;;;;;;;6127351;23;20308;-74
2023/12/16 09:34:52;;;;;;;32.15;4.03;;;;;;;;;;6101150;23;20008;-72
2023/12/16 09:37:18;;;;;;;35.80;4.68;;;;;;;;;;6126865;23;20045;-74
2023/12/16 09:39:43;;;;;;;29.27;4.57;;;;;;;;;;6127227;23;20052;-73
2023/12/16 09:42:11;;;;;;;9.13;2.90;;;;;;;;;;6125947;23;20077;-73
2023/12/16 09:44:37;;;;;;;8.10;2.90;;;;;;;;;;6127057;23;20006;-74
2023/12/16 09:47:03;;;;;;;16.33;3.78;;;;;;;;;;6127179;23;20017;-73
2023/12/16 09:49:32;;;;;;;16.58;3.75;;;;;;;;;;6126141;23;20005;-74
2023/12/16 09:51:59;;;;;;;40.40;8.70;;;;;;;;;;6127449;23;20010;-73
2023/12/16 09:54:24;;;;;;;17.70;3.33;;;;;;;;;;6127245;23;20366;-73
2023/12/16 09:56:51;;;;;;;7.30;1.73;;;;;;;;;;6101393;23;20006;-73
2023/12/16 09:59:18;;;;;;;19.23;2.58;;;;;;;;;;6101932;23;20182;-73
2023/12/16 10:01:57;;;;;;;13.43;1.88;;;;;;;;;;6101695;23;20014;-75
2023/12/16 10:04:24;;;;;;;13.82;1.90;;;;;;;;;;6127400;23;20006;-72
2023/12/16 10:06:50;;;;;;;35.03;3.38;;;;;;;;;;6126792;23;20006;-73
2023/12/16 10:09:16;;;;;;;23.33;3.30;;;;;;;;;;6127197;23;20009;-73
2023/12/16 10:11:42;;;;;;;16.98;2.80;;;;;;;;;;6101134;23;20010;-74
2023/12/16 10:14:08;;;;;;;7.32;1.40;;;;;;;;;;6127211;23;20512;-73
2023/12/16 10:16:34;;;;;;;5.07;1.73;;;;;;;;;;6126748;23;20341;-73
2023/12/16 10:19:00;;;;;;;15.77;3.58;;;;;;;;;;6126913;23;20084;-77
2023/12/16 10:21:33;;;;;;;5.18;1.70;;;;;;;;;;6125699;23;20440;-73
2023/12/16 10:24:00;;;;;;;4.97;0.95;;;;;;;;;;6126751;23;20040;-71
2023/12/16 10:26:33;;;;;;;2.63;0.57;;;;;;;;;;6100259;23;20022;-76
2023/12/16 10:29:04;;;;;;;1.67;1.10;;;;;;;;;;6126770;23;20092;-73
2023/12/16 10:31:30;;;;;;;7.50;1.58;;;;;;;;;;6126132;23;20397;-73
2023/12/16 10:34:00;;;;;;;9.52;1.30;;;;;;;;;;6126408;23;20009;-72
2023/12/16 10:36:26;;;;;;;6.25;1.42;;;;;;;;;;6126730;23;20022;-74
2023/12/16 10:38:52;;;;;;;2.67;1.05;;;;;;;;;;6126913;23;20088;-73
2023/12/16 10:41:21;;;;;;;5.72;1.75;;;;;;;;;;6126474;23;20348;-73
2023/12/16 10:43:47;;;;;;;7.90;1.90;;;;;;;;;;6099187;23;20036;-72
2023/12/16 10:46:17;;;;;;;2.40;1.20;;;;;;;;;;6125807;23;20010;-72
2023/12/16 10:48:47;;;;;;;5.60;1.10;;;;;;;;;;6124813;23;20021;-73
2023/12/16 10:51:15;;;;;;;2.92;1.38;;;;;;;;;;6125719;23;20084;-73
2023/12/16 10:53:54;;;;;;;2.78;1.65;;;;;;;;;;6125374;23;20006;-72
2023/12/16 10:56:30;;;;;;;2.60;1.00;;;;;;;;;;6099318;23;20113;-73
2023/12/16 10:59:06;;;;;;;6.22;1.33;;;;;;;;;;6125478;23;20020;-73
2023/12/16 11:01:38;;;;;;;3.95;1.33;;;;;;;;;;6099190;23;20013;-74
2023/12/16 11:04:17;;;;;;;10.32;2.60;;;;;;;;;;6125182;23;20142;-74
2023/12/16 11:06:55;;;;;;;3.15;1.00;;;;;;;;;;6123707;23;20456;-74
2023/12/16 11:09:22;;;;;;;4.70;1.05;;;;;;;;;;6125906;23;20357;-75
2023/12/16 11:11:48;;;;;;;5.63;1.40;;;;;;;;;;6098840;23;20389;-72
2023/12/16 11:14:15;;;;;;;3.53;1.75;;;;;;;;;;6125532;23;20021;-71
2023/12/16 11:16:50;;;;;;;2.25;1.10;;;;;;;;;;6124998;23;20073;-72
2023/12/16 11:19:19;;;;;;;4.30;1.20;;;;;;;;;;6125447;23;20041;-72
2023/12/16 11:21:54;;;;;;;7.15;1.80;;;;;;;;;;6125082;23;20014;-73
2023/12/16 11:24:20;;;;;;;2.92;1.17;;;;;;;;;;6124559;23;20006;-73
2023/12/16 11:26:53;;;;;;;3.97;0.82;;;;;;;;;;6124745;23;20112;-72
2023/12/16 11:29:23;;;;;;;;;;;;;;;;;;6125138;23;20044;-71
2023/12/16 11:31:58;;;;;;;10.65;2.13;;;;;;;;;;6124791;23;19909;-73
2023/12/16 11:34:50;;;;;;;7.78;1.83;;;;;;;;;;6125649;23;20016;-72
2023/12/16 11:37:37;;;;;;;2.55;0.93;;;;;;;;;;6124123;23;20473;-72
2023/12/16 11:40:04;;;;;;;5.32;1.00;;;;;;;;;;6125324;23;20401;-74
2023/12/16 11:42:46;;;;;;;1.60;1.00;;;;;;;;;;6127028;23;20005;-71
2023/12/16 11:45:57;;;;;;;3.58;1.35;;;;;;;;;;6132892;23;20070;-72
2023/12/16 11:48:23;;;;;;;6.68;1.90;;;;;;;;;;6097311;23;20018;-74
2023/12/16 11:50:49;;;;;;;7.75;1.50;;;;;;;;;;6125172;23;20088;-72
2023/12/16 11:53:18;;;;;;;3.25;1.70;;;;;;;;;;6124640;23;20017;-73
2023/12/16 11:55:44;;;;;;;2.58;1.83;;;;;;;;;;6125208;23;20005;-73
2023/12/16 11:58:10;;;;;;;2.85;1.38;;;;;;;;;;6125132;23;20041;-72
2023/12/16 12:00:36;;;;;;;1.95;1.25;;;;;;;;;;6124936;23;20009;-73
2023/12/16 12:03:03;;;;;;;2.17;1.38;;;;;;;;;;6124304;23;20021;-74
2023/12/16 12:05:29;;;;;;;1.48;0.90;;;;;;;;;;6125046;23;20002;-73
2023/12/16 12:07:56;;;;;;;2.40;1.50;;;;;;;;;;6124690;23;20033;-74
2023/12/16 12:10:22;;;;;;;2.83;1.55;;;;;;;;;;6125024;23;20002;-74
2023/12/16 12:12:52;;;;;;;2.58;1.30;;;;;;;;;;6124950;23;20014;-73
2023/12/16 12:15:18;;;;;;;1.83;1.17;;;;;;;;;;6124943;23;20400;-75
2023/12/16 12:17:43;;;;;;;2.40;1.48;;;;;;;;;;6098253;23;20006;-73
2023/12/16 12:20:13;;;;;;;2.60;1.40;;;;;;;;;;6124645;23;20445;-73
2023/12/16 12:22:40;;;;;;;1.65;1.00;;;;;;;;;;6098934;23;20005;-71
2023/12/16 12:25:07;;;;;;;1.88;1.38;;;;;;;;;;6124550;23;20010;-74
2023/12/16 12:27:33;;;;;;;2.58;1.20;;;;;;;;;;6124625;23;20061;-72
2023/12/16 12:30:04;;;;;;;1.60;0.90;;;;;;;;;;6124555;23;20014;-73
2023/12/16 12:32:31;;;;;;;5.75;2.15;;;;;;;;;;6124206;23;20009;-71
2023/12/16 12:35:05;;;;;;;3.60;2.30;;;;;;;;;;6124216;23;20021;-74
2023/12/16 12:37:46;;;;;;;;;;;;;;;;;;6125478;23;20014;-75
2023/12/16 12:40:15;;;;;;;2.38;1.30;;;;;;;;;;6124564;23;20249;-74
2023/12/16 12:42:53;;;;;;;2.13;1.30;;;;;;;;;;6124863;23;20013;-73
2023/12/16 12:45:26;;;;;;;2.13;1.38;;;;;;;;;;6124580;23;20026;-72
2023/12/16 12:47:52;;;;;;;;;;;;;;;;;;6125660;23;20291;-73
2023/12/16 12:50:20;;;;;;;2.38;1.50;;;;;;;;;;6124845;23;19965;-73
2023/12/16 12:52:46;;;;;;;3.05;1.40;;;;;;;;;;6124794;23;20060;-73
2023/12/16 12:55:11;;;;;;;4.45;1.38;;;;;;;;;;6124552;23;20083;-73
2023/12/16 12:57:37;;;;;;;2.50;1.70;;;;;;;;;;6098451;23;20014;-74
2023/12/16 13:00:03;;;;;;;4.50;2.25;;;;;;;;;;6124264;23;20069;-74
2023/12/16 13:02:30;;;;;;;5.85;1.60;;;;;;;;;;6124793;23;20392;-74
2023/12/16 13:04:56;;;;;;;2.42;1.25;;;;;;;;;;6122829;23;20508;-75
2023/12/16 13:07:22;;;;;;;3.78;2.00;;;;;;;;;;6124395;23;20034;-73
2023/12/16 13:09:48;;;;;;;3.05;1.90;;;;;;;;;;6124656;23;20452;-72
2023/12/16 13:12:13;;;;;;;4.03;2.40;;;;;;;;;;6124260;23;20014;-73
2023/12/16 13:14:47;;;;;;;3.45;1.75;;;;;;;;;;6124426;23;20006;-73
2023/12/16 13:17:15;;;;;;;2.85;1.42;;;;;;;;;;6124881;23;20009;-73
2023/12/16 13:19:42;;;;;;;2.35;1.50;;;;;;;;;;6098364;23;20519;-73
2023/12/16 13:22:09;;;;;;;1.90;1.35;;;;;;;;;;6124502;23;20073;-74
2023/12/16 13:24:34;;;;;;;3.67;2.03;;;;;;;;;;6124466;23;20029;-74
2023/12/16 13:27:01;;;;;;;4.60;2.60;;;;;;;;;;6124133;23;20448;-74
2023/12/16 13:29:26;;;;;;;2.13;1.40;;;;;;;;;;6098100;23;20417;-73
2023/12/16 13:31:54;;;;;;;3.47;1.63;;;;;;;;;;6124452;23;20010;-73
2023/12/16 13:34:19;;;;;;;1.33;0.90;;;;;;;;;;6123932;23;20096;-74
2023/12/16 13:36:45;;;;;;;2.60;1.75;;;;;;;;;;6124280;23;20425;-74
2023/12/16 13:39:11;;;;;;;2.50;1.52;;;;;;;;;;6124193;23;19998;-73
2023/12/16 13:41:37;;;;;;;4.10;1.85;;;;;;;;;;6124973;23;20016;-73
2023/12/16 13:44:03;;;;;;;2.22;1.20;;;;;;;;;;6124875;23;20006;-73
2023/12/16 13:46:30;;;;;;;3.90;1.80;;;;;;;;;;6124063;23;20017;-74
2023/12/16 13:48:57;;;;;;;2.47;1.52;;;;;;;;;;6125776;23;20005;-73
2023/12/16 13:51:22;;;;;;;3.80;1.83;;;;;;;;;;6125382;23;20069;-72
2023/12/16 13:53:48;;;;;;;14.60;4.45;;;;;;;;;;6124515;23;20353;-73
2023/12/16 13:56:14;;;;;;;15.52;3.97;;;;;;;;;;6124447;23;20006;-72
2023/12/16 13:58:40;;;;;;;8.63;3.20;;;;;;;;;;6124551;23;20006;-73
2023/12/16 14:01:06;;;;;;;6.47;2.70;;;;;;;;;;6124180;23;20014;-73
2023/12/16 14:03:32;;;;;;;6.93;3.17;;;;;;;;;;6124495;23;20039;-73
2023/12/16 14:05:58;;;;;;;3.17;1.85;;;;;;;;;;6124029;23;20437;-74
2023/12/16 14:08:25;;;;;;;2.78;1.77;;;;;;;;;;6125423;23;20002;-73
2023/12/16 14:10:51;;;;;;;3.30;1.60;;;;;;;;;;6127850;23;20041;-74
2023/12/16 14:13:16;;;;;;;3.03;2.00;;;;;;;;;;6124361;23;20017;-74
2023/12/16 14:15:42;;;;;;;4.15;2.50;;;;;;;;;;6124518;23;20009;-74
2023/12/16 14:18:08;;;;;;;3.08;1.20;;;;;;;;;;6075473;23;20010;-74
2023/12/16 14:20:34;;;;;;;2.17;1.42;;;;;;;;;;6126111;23;20417;-75
2023/12/16 14:22:59;;;;;;;1.83;1.30;;;;;;;;;;6125687;23;20132;-74
2023/12/16 14:25:25;;;;;;;2.05;1.45;;;;;;;;;;6101350;23;20109;-75
2023/12/16 14:27:51;;;;;;;2.30;1.50;;;;;;;;;;6127877;23;20026;-74
2023/12/16 14:30:17;;;;;;;2.60;1.80;;;;;;;;;;6126223;23;20014;-73
2023/12/16 14:32:43;;;;;;;1.75;1.35;;;;;;;;;;6099725;23;20009;-73
2023/12/16 14:35:10;;;;;;;2.65;1.30;;;;;;;;;;6126102;23;20437;-75
2023/12/16 14:37:36;;;;;;;6.18;1.60;;;;;;;;;;6125438;23;20010;-75
2023/12/16 14:40:03;;;;;;;2.58;1.45;;;;;;;;;;6126427;23;20389;-74